Time;durP1;ratioP1;P1;durP2;ratioP2;P2;SDS_P1;SDS_P2;PMS_P1;PMS_P2;Temp;Humidity;BMP_temperature;BMP_pressure;BME280_temperature;BME280_humidity;BME280_pressure;Samples;Min_cycle;Max_cycle;Signal;HPM_P1;HPM_P2
2021/03/12 00:02:01;;;;;;;50.22;28.83;;;6.70;74.90;;;;;;5038557;28;20026;-67
2021/03/12 00:04:27;;;;;;;82.07;43.97;;;6.70;74.70;;;;;;5041866;28;20028;-76
2021/03/12 00:06:53;;;;;;;104.88;53.20;;;6.80;75.10;;;;;;5038833;28;20025;-76
2021/03/12 00:09:19;;;;;;;78.00;40.67;;;6.80;74.20;;;;;;5039388;28;20026;-76
2021/03/12 00:11:45;;;;;;;191.80;97.57;;;6.80;74.20;;;;;;5039998;28;20071;-73
2021/03/12 00:14:11;;;;;;;82.40;44.28;;;6.80;74.00;;;;;;5039254;28;20043;-67
2021/03/12 00:16:37;;;;;;;35.80;22.00;;;6.90;73.70;;;;;;5040066;28;20053;-76
2021/03/12 00:19:03;;;;;;;70.85;39.40;;;6.80;73.90;;;;;;5040052;28;20026;-68
2021/03/12 00:21:29;;;;;;;140.52;76.50;;;6.80;73.60;;;;;;5038355;28;20399;-68
2021/03/12 00:23:56;;;;;;;84.63;46.83;;;6.80;73.70;;;;;;5040605;28;20377;-71
2021/03/12 00:26:22;;;;;;;75.43;44.33;;;6.80;73.50;;;;;;5038666;28;20026;-68
2021/03/12 00:28:47;;;;;;;99.20;57.88;;;6.80;73.40;;;;;;5037048;28;20424;-68
2021/03/12 00:31:15;;;;;;;60.67;38.88;;;6.80;73.80;;;;;;5038517;28;20033;-68
2021/03/12 00:33:41;;;;;;;60.58;38.33;;;6.80;73.80;;;;;;5038167;28;20049;-71
2021/03/12 00:36:07;;;;;;;33.67;21.45;;;6.80;73.60;;;;;;5038066;28;20030;-75
2021/03/12 00:38:33;;;;;;;60.28;41.55;;;6.80;73.30;;;;;;5039762;28;20476;-76
2021/03/12 00:41:04;;;;;;;52.08;36.90;;;6.70;73.20;;;;;;5038613;28;20513;-68
2021/03/12 00:43:30;;;;;;;48.28;36.15;;;6.70;73.10;;;;;;5039196;28;20041;-70
2021/03/12 00:46:08;;;;;;;43.85;32.60;;;6.70;73.30;;;;;;5039838;28;20066;-68
2021/03/12 00:48:34;;;;;;;48.45;33.30;;;6.70;73.20;;;;;;5038601;28;20022;-76
2021/03/12 00:51:01;;;;;;;26.33;18.00;;;6.80;73.60;;;;;;5037682;28;20042;-77
2021/03/12 00:53:27;;;;;;;38.30;26.20;;;6.80;73.80;;;;;;5038293;28;20017;-76
2021/03/12 00:55:53;;;;;;;43.13;28.88;;;6.80;73.40;;;;;;5038214;28;20026;-69
2021/03/12 00:58:21;;;;;;;33.85;21.83;;;6.70;73.50;;;;;;5040035;28;20025;-68
2021/03/12 01:00:47;;;;;;;57.00;36.13;;;6.80;74.00;;;;;;5039898;28;20025;-76
2021/03/12 01:03:13;;;;;;;38.63;24.70;;;6.80;73.60;;;;;;5039127;28;20044;-68
2021/03/12 01:05:39;;;;;;;64.75;46.03;;;6.80;73.30;;;;;;5038853;28;20018;-71
2021/03/12 01:08:06;;;;;;;36.45;24.95;;;6.80;73.20;;;;;;5038488;28;20035;-76
2021/03/12 01:10:33;;;;;;;34.63;23.23;;;6.80;73.40;;;;;;5037731;28;20553;-68
2021/03/12 01:12:59;;;;;;;41.47;29.83;;;6.90;73.20;;;;;;5039040;28;20019;-76
2021/03/12 01:15:26;;;;;;;35.30;21.90;;;6.90;73.30;;;;;;5040939;28;20112;-75
2021/03/12 01:17:52;;;;;;;38.50;22.20;;;6.90;73.80;;;;;;5037911;28;20048;-76
2021/03/12 01:20:23;;;;;;;42.35;22.00;;;6.90;74.80;;;;;;5039310;28;20364;-68
2021/03/12 01:22:49;;;;;;;37.00;20.73;;;7.00;75.80;;;;;;5039193;28;20041;-68
2021/03/12 01:25:19;;;;;;;48.85;33.78;;;6.90;76.90;;;;;;5040562;28;20543;-68
2021/03/12 01:27:47;;;;;;;48.40;35.35;;;6.80;77.80;;;;;;5038572;28;20029;-68
2021/03/12 01:30:33;;;;;;;48.83;36.33;;;6.70;78.60;;;;;;5040247;28;20422;-72
2021/03/12 01:32:59;;;;;;;45.85;31.38;;;6.50;78.70;;;;;;5039448;28;20075;-75
2021/03/12 01:35:25;;;;;;;34.60;24.27;;;6.50;79.00;;;;;;5040539;28;20021;-68
2021/03/12 01:37:51;;;;;;;33.60;23.98;;;6.50;79.10;;;;;;5038386;28;20379;-68
2021/03/12 01:40:20;;;;;;;30.45;19.63;;;6.50;79.00;;;;;;5038703;28;20108;-67
2021/03/12 01:42:46;;;;;;;26.58;17.92;;;6.50;79.20;;;;;;5040475;28;20025;-75
2021/03/12 01:45:15;;;;;;;24.20;17.95;;;6.50;79.10;;;;;;5038659;28;20057;-68
2021/03/12 01:47:42;;;;;;;33.08;20.65;;;6.60;78.90;;;;;;5039415;28;20013;-76
2021/03/12 01:50:09;;;;;;;26.27;17.50;;;6.60;78.80;;;;;;5036364;28;20045;-76
2021/03/12 01:52:35;;;;;;;27.42;18.58;;;6.60;78.40;;;;;;5035509;28;20029;-68
2021/03/12 01:55:02;;;;;;;28.65;18.30;;;6.50;78.30;;;;;;5039412;28;20026;-71
2021/03/12 01:57:28;;;;;;;29.73;18.90;;;6.60;77.40;;;;;;5038504;28;20006;-75
2021/03/12 01:59:55;;;;;;;26.20;17.08;;;6.60;77.50;;;;;;5039846;28;20040;-74
2021/03/12 02:02:21;;;;;;;27.90;19.17;;;6.60;77.10;;;;;;5037652;28;20379;-74
2021/03/12 02:04:47;;;;;;;31.95;20.63;;;6.60;76.50;;;;;;5036993;28;20413;-68
2021/03/12 02:07:13;;;;;;;33.42;21.55;;;6.70;77.10;;;;;;5037212;28;20025;-69
2021/03/12 02:09:39;;;;;;;32.83;22.13;;;6.60;78.50;;;;;;5040549;28;20017;-71
2021/03/12 02:12:05;;;;;;;40.00;25.70;;;6.50;79.30;;;;;;5038490;28;20022;-76
2021/03/12 02:14:43;;;;;;;37.30;23.45;;;6.50;80.10;;;;;;5040427;28;20025;-68
2021/03/12 02:17:19;;;;;;;41.55;27.90;;;6.40;81.30;;;;;;5038503;28;20048;-69
2021/03/12 02:20:01;;;;;;;38.17;24.77;;;6.40;82.10;;;;;;5041078;28;20026;-68
2021/03/12 02:22:30;;;;;;;38.78;26.60;;;6.30;82.40;;;;;;5037651;28;20029;-75
2021/03/12 02:25:10;;;;;;;31.45;19.77;;;6.20;82.70;;;;;;5038915;28;20021;-67
2021/03/12 02:27:37;;;;;;;31.38;21.42;;;6.20;83.30;;;;;;5038000;28;20476;-68
2021/03/12 02:30:06;;;;;;;28.58;21.42;;;6.30;82.20;;;;;;5038874;28;20022;-72
2021/03/12 02:32:41;;;;;;;30.40;19.25;;;6.20;83.00;;;;;;5038441;28;20032;-68
2021/03/12 02:35:20;;;;;;;28.75;18.90;;;6.20;83.50;;;;;;5037899;28;20055;-76
2021/03/12 02:37:47;;;;;;;28.20;20.73;;;6.10;84.00;;;;;;5036994;28;20041;-75
2021/03/12 02:40:13;;;;;;;31.10;21.95;;;6.10;84.00;;;;;;5037497;28;20036;-68
2021/03/12 02:42:41;;;;;;;25.63;18.30;;;6.00;85.10;;;;;;5039475;28;20018;-75
2021/03/12 02:45:10;;;;;;;25.65;16.95;;;6.10;85.00;;;;;;5037596;28;20022;-70
2021/03/12 02:47:38;;;;;;;26.42;16.23;;;6.10;84.80;;;;;;5037416;28;20048;-76
2021/03/12 02:50:06;;;;;;;28.10;16.88;;;6.10;84.50;;;;;;5036726;28;20040;-68
2021/03/12 02:52:33;;;;;;;26.65;18.20;;;6.10;84.10;;;;;;5036073;28;20410;-74
2021/03/12 02:55:00;;;;;;;31.80;19.85;;;6.10;85.10;;;;;;5036357;28;20119;-76
2021/03/12 02:57:26;;;;;;;30.90;21.17;;;5.90;85.00;;;;;;5037840;28;20376;-77
2021/03/12 02:59:53;;;;;;;32.50;22.45;;;5.90;84.90;;;;;;5036336;28;20048;-68
2021/03/12 03:02:22;;;;;;;34.95;23.88;;;5.90;84.90;;;;;;5038394;28;20056;-76
2021/03/12 03:04:49;;;;;;;35.80;21.67;;;5.90;85.10;;;;;;5036754;28;20029;-77
2021/03/12 03:07:18;;;;;;;37.47;26.52;;;5.90;85.00;;;;;;5037031;28;20022;-69
2021/03/12 03:09:44;;;;;;;34.00;24.13;;;6.00;85.60;;;;;;5035539;28;20083;-76
2021/03/12 03:12:14;;;;;;;32.03;22.92;;;6.00;85.70;;;;;;5039093;28;20029;-74
2021/03/12 03:14:42;;;;;;;37.83;22.70;;;6.10;85.10;;;;;;5038678;28;20060;-76
2021/03/12 03:17:10;;;;;;;42.33;23.98;;;6.10;84.60;;;;;;5038467;28;20064;-76
2021/03/12 03:19:39;;;;;;;33.50;22.25;;;6.10;83.90;;;;;;5040992;28;20001;-76
2021/03/12 03:22:07;;;;;;;37.30;20.98;;;6.10;84.40;;;;;;5041295;28;20014;-67
2021/03/12 03:24:33;;;;;;;33.40;19.77;;;6.10;84.90;;;;;;5040986;28;20032;-76
2021/03/12 03:26:59;;;;;;;29.58;19.10;;;6.00;85.10;;;;;;5040586;28;20021;-76
2021/03/12 03:29:25;;;;;;;33.25;20.63;;;6.00;84.30;;;;;;5041009;28;20025;-68
2021/03/12 03:31:51;;;;;;;39.28;22.30;;;6.00;84.70;;;;;;5040850;28;20374;-68
2021/03/12 03:34:17;;;;;;;39.58;21.63;;;6.00;84.90;;;;;;5039473;28;20026;-76
2021/03/12 03:36:44;;;;;;;39.63;22.75;;;6.00;84.80;;;;;;5041074;28;20416;-76
2021/03/12 03:39:12;;;;;;;48.33;21.48;;;6.00;84.70;;;;;;5041422;28;20075;-68
2021/03/12 03:41:45;;;;;;;46.03;20.80;;;5.90;84.70;;;;;;5041339;28;20032;-73
2021/03/12 03:44:13;;;;;;;40.05;20.60;;;6.00;84.60;;;;;;5043026;28;20013;-68
2021/03/12 03:46:41;;;;;;;39.40;19.30;;;6.00;84.30;;;;;;5043234;28;20026;-68
2021/03/12 03:49:09;;;;;;;32.85;19.27;;;6.10;84.10;;;;;;5041495;28;20018;-68
2021/03/12 03:51:39;;;;;;;34.10;20.00;;;6.10;83.80;;;;;;5039623;28;20491;-76
2021/03/12 03:54:06;;;;;;;33.35;19.42;;;6.20;83.60;;;;;;5040156;28;20124;-68
2021/03/12 03:56:36;;;;;;;31.48;18.85;;;6.10;83.60;;;;;;5039183;28;20030;-68
2021/03/12 03:59:03;;;;;;;28.90;18.83;;;6.10;83.40;;;;;;5041925;28;20021;-68
2021/03/12 04:01:30;;;;;;;29.75;18.85;;;6.10;82.90;;;;;;5038849;28;20044;-73
2021/03/12 04:03:56;;;;;;;26.73;18.13;;;6.10;82.70;;;;;;5039696;28;20052;-76
2021/03/12 04:06:25;;;;;;;28.88;18.65;;;6.20;83.00;;;;;;5040776;28;20522;-68
2021/03/12 04:08:52;;;;;;;26.33;17.42;;;6.20;82.40;;;;;;5042011;28;20013;-76
2021/03/12 04:11:18;;;;;;;25.95;18.02;;;6.20;82.30;;;;;;5042305;28;20044;-71
2021/03/12 04:13:44;;;;;;;29.40;18.17;;;6.20;82.30;;;;;;5039060;28;20036;-76
2021/03/12 04:16:11;;;;;;;26.20;17.52;;;6.20;82.20;;;;;;5040714;28;20026;-77
2021/03/12 04:18:39;;;;;;;28.98;17.42;;;6.10;82.80;;;;;;5041853;28;20105;-68
2021/03/12 04:21:05;;;;;;;27.20;17.48;;;6.10;82.80;;;;;;5039640;28;20033;-76
2021/03/12 04:23:32;;;;;;;29.75;18.30;;;6.10;82.80;;;;;;5041463;28;20479;-69
2021/03/12 04:25:58;;;;;;;27.92;17.23;;;6.10;83.10;;;;;;5040122;28;20100;-73
2021/03/12 04:28:24;;;;;;;29.63;17.73;;;6.20;83.10;;;;;;5040413;28;20045;-68
2021/03/12 04:30:50;;;;;;;31.13;19.42;;;6.20;83.40;;;;;;5040758;28;20029;-73
2021/03/12 04:33:19;;;;;;;34.67;21.80;;;6.30;82.70;;;;;;5040099;28;20044;-68
2021/03/12 04:35:45;;;;;;;32.67;21.65;;;6.30;82.70;;;;;;5040809;28;20029;-67
2021/03/12 04:38:11;;;;;;;39.08;25.35;;;6.40;82.20;;;;;;5040050;28;20029;-73
2021/03/12 04:40:38;;;;;;;29.88;20.52;;;6.40;82.50;;;;;;5041040;28;20014;-68
2021/03/12 04:43:05;;;;;;;30.35;19.52;;;6.40;81.40;;;;;;5041280;28;20071;-76
2021/03/12 04:45:31;;;;;;;29.42;18.52;;;6.50;80.70;;;;;;5041640;28;20055;-71
2021/03/12 04:47:58;;;;;;;30.75;19.58;;;6.60;80.50;;;;;;5039570;28;20472;-68
2021/03/12 04:50:25;;;;;;;32.83;19.15;;;6.60;80.80;;;;;;5040125;28;20048;-68
2021/03/12 04:52:54;;;;;;;27.95;18.60;;;6.60;82.20;;;;;;5039836;28;20040;-68
2021/03/12 04:55:21;;;;;;;31.10;19.55;;;6.60;82.40;;;;;;5040533;28;20018;-68
2021/03/12 04:57:47;;;;;;;33.22;21.13;;;6.60;82.10;;;;;;5040372;28;20510;-68
2021/03/12 05:00:14;;;;;;;30.00;18.42;;;6.60;81.90;;;;;;5039596;28;20112;-68
2021/03/12 05:02:40;;;;;;;118.15;50.45;;;6.60;82.10;;;;;;5040023;28;20428;-77
2021/03/12 05:05:09;;;;;;;47.55;28.10;;;6.70;81.20;;;;;;5038666;28;20089;-68
2021/03/12 05:07:36;;;;;;;40.25;25.65;;;6.70;80.80;;;;;;5040045;28;20006;-77
2021/03/12 05:10:05;;;;;;;47.30;29.23;;;6.70;81.90;;;;;;5039948;28;20026;-77
2021/03/12 05:12:31;;;;;;;45.40;28.05;;;6.80;81.70;;;;;;5038255;28;20199;-68
2021/03/12 05:14:58;;;;;;;44.47;29.42;;;6.80;81.60;;;;;;5038991;28;20021;-68
2021/03/12 05:17:23;;;;;;;43.80;30.20;;;6.80;81.90;;;;;;5040442;28;20021;-68
2021/03/12 05:19:50;;;;;;;41.28;26.17;;;6.80;82.10;;;;;;5037531;28;20017;-68
2021/03/12 05:22:16;;;;;;;34.95;22.67;;;6.80;82.70;;;;;;5039133;28;20010;-76
2021/03/12 05:24:42;;;;;;;33.10;21.65;;;6.70;84.40;;;;;;5037798;28;20402;-77
2021/03/12 05:27:08;;;;;;;38.65;22.77;;;6.70;83.60;;;;;;5037210;28;20424;-77
2021/03/12 05:29:35;;;;;;;38.35;21.73;;;6.70;84.60;;;;;;5037897;28;20025;-72
2021/03/12 05:32:01;;;;;;;42.53;24.13;;;6.70;84.30;;;;;;5040165;28;20010;-73
2021/03/12 05:34:27;;;;;;;46.08;25.40;;;6.80;85.00;;;;;;5039858;28;20447;-70
2021/03/12 05:36:53;;;;;;;46.83;27.55;;;6.80;85.30;;;;;;5039499;28;20120;-67
2021/03/12 05:39:20;;;;;;;48.70;28.67;;;6.80;84.20;;;;;;5040186;28;20494;-69
2021/03/12 05:41:47;;;;;;;40.58;24.50;;;6.80;85.00;;;;;;5039508;28;20013;-76
2021/03/12 05:44:13;;;;;;;45.45;22.30;;;6.80;85.90;;;;;;5039025;28;20506;-71
2021/03/12 05:46:40;;;;;;;38.40;20.90;;;6.80;86.80;;;;;;5041021;28;20101;-73
2021/03/12 05:49:07;;;;;;;33.95;20.90;;;6.90;83.70;;;;;;5039890;28;20025;-66
2021/03/12 05:51:36;;;;;;;33.33;19.90;;;6.90;85.10;;;;;;5037993;28;20049;-80
2021/03/12 05:54:03;;;;;;;38.65;21.63;;;6.90;84.10;;;;;;5039812;28;20179;-66
2021/03/12 05:56:29;;;;;;;35.38;20.88;;;6.90;85.70;;;;;;5038718;28;20025;-82
2021/03/12 05:58:58;;;;;;;48.72;22.45;;;6.90;83.80;;;;;;5039305;28;20018;-70
2021/03/12 06:01:24;;;;;;;39.03;22.02;;;6.90;87.60;;;;;;5040219;28;20022;-72
2021/03/12 06:03:50;;;;;;;41.65;20.50;;;6.90;86.10;;;;;;5040423;28;20022;-74
2021/03/12 06:06:16;;;;;;;31.75;19.35;;;6.90;84.70;;;;;;5039525;28;20028;-75
2021/03/12 06:08:42;;;;;;;32.33;18.20;;;7.00;83.50;;;;;;5041022;28;20100;-68
2021/03/12 06:11:08;;;;;;;28.77;18.23;;;7.00;84.60;;;;;;5040401;28;20018;-71
2021/03/12 06:13:51;;;;;;;29.27;17.95;;;7.00;84.00;;;;;;5040956;28;20053;-67
2021/03/12 06:16:35;;;;;;;43.67;23.80;;;7.00;83.40;;;;;;5038569;28;20395;-67
2021/03/12 06:19:14;;;;;;;42.07;24.70;;;7.00;83.40;;;;;;5041700;28;20091;-75
2021/03/12 06:21:41;;;;;;;67.90;39.22;;;7.00;82.80;;;;;;5040686;28;20045;-68
2021/03/12 06:24:34;;;;;;;55.90;34.10;;;7.00;84.50;;;;;;5040927;28;20064;-69
2021/03/12 06:27:00;;;;;;;85.38;47.50;;;7.00;84.10;;;;;;5036744;28;20087;-76
2021/03/12 06:29:35;;;;;;;77.22;44.80;;;7.00;83.60;;;;;;5037170;28;20025;-75
2021/03/12 06:32:02;;;;;;;90.55;55.05;;;7.00;83.70;;;;;;5035685;28;20542;-76
2021/03/12 06:34:29;;;;;;;76.53;51.28;;;7.10;82.50;;;;;;5038222;28;20097;-76
2021/03/12 06:36:55;;;;;;;67.70;46.55;;;7.00;83.70;;;;;;5039907;28;20375;-73
2021/03/12 06:39:35;;;;;;;44.80;30.08;;;7.00;83.40;;;;;;5038743;28;20026;-77
2021/03/12 06:42:10;;;;;;;31.40;20.23;;;7.00;83.00;;;;;;5040774;28;20061;-66
2021/03/12 06:44:37;;;;;;;40.50;18.70;;;7.00;84.30;;;;;;5040020;28;20005;-71
2021/03/12 06:47:05;;;;;;;36.85;17.92;;;7.00;85.20;;;;;;5039919;28;20048;-68
2021/03/12 06:49:32;;;;;;;28.60;16.77;;;7.00;84.70;;;;;;5040320;28;20025;-68
2021/03/12 06:52:03;;;;;;;33.92;15.52;;;7.10;83.70;;;;;;5041724;28;20195;-67
2021/03/12 06:54:34;;;;;;;26.38;14.02;;;7.00;83.50;;;;;;5045327;28;20041;-75
2021/03/12 06:57:17;;;;;;;27.40;14.05;;;7.10;83.50;;;;;;5044571;28;20040;-68
2021/03/12 06:59:44;;;;;;;19.73;13.32;;;7.10;83.10;;;;;;5045207;28;20048;-75
2021/03/12 07:02:10;;;;;;;24.23;13.40;;;7.10;83.90;;;;;;5044292;28;20093;-71
2021/03/12 07:04:38;;;;;;;18.85;14.20;;;7.10;82.50;;;;;;5043863;28;20017;-72
2021/03/12 07:07:04;;;;;;;24.80;14.98;;;7.20;83.80;;;;;;5042982;28;20032;-68
2021/03/12 07:09:29;;;;;;;35.13;23.65;;;7.20;84.10;;;;;;5042072;28;20018;-69
2021/03/12 07:12:04;;;;;;;32.03;21.05;;;7.20;84.80;;;;;;5041083;28;20025;-68
2021/03/12 07:14:34;;;;;;;28.58;17.98;;;7.10;84.40;;;;;;5041020;28;20044;-67
2021/03/12 07:17:00;;;;;;;24.05;16.90;;;7.20;84.30;;;;;;5040957;28;20431;-72
2021/03/12 07:19:26;;;;;;;25.73;17.05;;;7.20;85.80;;;;;;5044106;28;20053;-69
2021/03/12 07:21:58;;;;;;;39.75;25.55;;;7.20;85.30;;;;;;5044212;28;20027;-67
2021/03/12 07:24:25;;;;;;;62.65;37.80;;;7.20;87.30;;;;;;5042754;28;20085;-69
2021/03/12 07:26:58;;;;;;;51.72;33.33;;;7.20;86.30;;;;;;5042238;28;20010;-69
2021/03/12 07:29:27;;;;;;;42.38;26.88;;;7.20;87.80;;;;;;5039991;28;20538;-69
2021/03/12 07:31:57;;;;;;;36.50;22.90;;;7.30;86.40;;;;;;5039170;28;20033;-78
2021/03/12 07:34:32;;;;;;;31.95;21.33;;;7.30;86.50;;;;;;5037292;28;20127;-67
2021/03/12 07:37:01;;;;;;;34.00;20.77;;;7.30;88.80;;;;;;5038222;28;20014;-69
2021/03/12 07:39:46;;;;;;;35.22;20.90;;;7.30;86.50;;;;;;5040008;28;20025;-77
2021/03/12 07:42:17;;;;;;;39.92;26.58;;;7.30;86.50;;;;;;5039993;28;20474;-71
2021/03/12 07:44:45;;;;;;;40.25;25.30;;;7.30;88.60;;;;;;5040491;28;20012;-75
2021/03/12 07:47:12;;;;;;;36.85;25.73;;;7.40;88.80;;;;;;5036978;28;20021;-65
2021/03/12 07:49:38;;;;;;;29.75;19.50;;;7.40;87.70;;;;;;5036823;28;20378;-64
2021/03/12 07:52:05;;;;;;;30.23;20.05;;;7.40;88.10;;;;;;5037426;28;20105;-66
2021/03/12 07:54:40;;;;;;;31.08;19.70;;;7.40;89.10;;;;;;5037375;28;20029;-65
2021/03/12 07:57:07;;;;;;;31.58;19.67;;;7.40;89.80;;;;;;5038466;28;20013;-66
2021/03/12 07:59:49;;;;;;;28.45;20.17;;;7.50;90.20;;;;;;5038082;28;20022;-75
2021/03/12 08:02:18;;;;;;;35.33;23.20;;;7.50;88.70;;;;;;5036931;28;20036;-66
2021/03/12 08:04:46;;;;;;;32.67;21.77;;;7.50;90.10;;;;;;5037909;28;20028;-66
2021/03/12 08:07:20;;;;;;;31.20;19.83;;;7.50;89.30;;;;;;5037414;28;20551;-65
2021/03/12 08:09:56;;;;;;;26.73;19.35;;;7.60;88.40;;;;;;5036823;28;20030;-65
2021/03/12 08:12:39;;;;;;;29.73;19.80;;;7.50;90.30;;;;;;5037210;28;20503;-65
2021/03/12 08:15:15;;;;;;;88.95;48.40;;;7.60;91.50;;;;;;5020639;28;20061;-65
2021/03/12 08:17:45;;;;;;;96.68;52.30;;;7.50;91.30;;;;;;5019154;28;20026;-77
2021/03/12 08:20:23;;;;;;;50.05;31.42;;;7.50;91.20;;;;;;5018842;28;20488;-64
2021/03/12 08:22:57;;;;;;;34.60;23.45;;;7.50;91.40;;;;;;5021397;28;20643;-65
2021/03/12 08:25:40;;;;;;;40.55;25.35;;;7.50;92.10;;;;;;5015352;28;20033;-65
2021/03/12 08:28:06;;;;;;;49.92;30.85;;;7.60;92.40;;;;;;5014153;28;20037;-65
2021/03/12 08:30:35;;;;;;;63.03;37.90;;;7.60;92.90;;;;;;5014977;28;20025;-72
2021/03/12 08:33:20;;;;;;;70.90;40.42;;;7.70;91.80;;;;;;5026533;28;20022;-78
2021/03/12 08:35:49;;;;;;;54.55;32.92;;;7.70;92.20;;;;;;5026970;28;20076;-65
2021/03/12 08:38:28;;;;;;;39.95;26.55;;;7.80;91.80;;;;;;5021923;28;20475;-75
2021/03/12 08:41:16;;;;;;;36.90;24.05;;;7.80;91.90;;;;;;5020584;28;20472;-65
2021/03/12 08:43:50;;;;;;;43.97;26.88;;;7.90;92.10;;;;;;5025052;28;20006;-75
2021/03/12 08:46:25;;;;;;;36.65;23.58;;;8.00;92.60;;;;;;5028930;28;20498;-75
2021/03/12 08:48:52;;;;;;;;;;;8.00;92.60;;;;;;5039718;28;20036;-72
2021/03/12 08:51:19;;;;;;;61.78;34.97;;;8.00;93.00;;;;;;5041256;28;19917;-65
2021/03/12 08:53:54;;;;;;;57.22;43.38;;;8.00;92.80;;;;;;5041525;28;20470;-76
2021/03/12 08:56:40;;;;;;;34.53;21.52;;;8.00;93.10;;;;;;5037193;28;20475;-73
2021/03/12 08:59:06;;;;;;;33.83;22.58;;;8.00;92.50;;;;;;5037729;28;20021;-67
2021/03/12 09:01:33;;;;;;;28.63;19.63;;;8.00;92.60;;;;;;5039629;28;20502;-67
2021/03/12 09:04:01;;;;;;;27.63;17.92;;;8.10;92.70;;;;;;5038668;28;20041;-65
2021/03/12 09:06:37;;;;;;;35.60;23.63;;;8.10;92.00;;;;;;5039607;28;20028;-76
2021/03/12 09:09:06;;;;;;;35.30;22.77;;;8.20;92.90;;;;;;5039301;28;20029;-67
2021/03/12 09:11:32;;;;;;;42.30;29.17;;;8.30;93.20;;;;;;5039544;28;20017;-77
2021/03/12 09:14:00;;;;;;;36.55;24.50;;;8.30;93.20;;;;;;5027221;28;20034;-65
2021/03/12 09:16:29;;;;;;;40.30;25.65;;;8.30;92.70;;;;;;5033453;28;20017;-77
2021/03/12 09:18:56;;;;;;;40.38;27.25;;;8.30;92.90;;;;;;5035178;28;20025;-75
2021/03/12 09:21:28;;;;;;;47.80;32.95;;;8.40;93.00;;;;;;5037216;28;20061;-71
2021/03/12 09:23:59;;;;;;;55.97;37.10;;;8.40;92.50;;;;;;5036304;28;20100;-65
2021/03/12 09:26:28;;;;;;;49.85;32.15;;;8.40;92.60;;;;;;5036560;28;20049;-77
2021/03/12 09:28:56;;;;;;;42.63;27.17;;;8.50;92.90;;;;;;5036071;28;20403;-66
2021/03/12 09:31:30;;;;;;;59.20;37.53;;;8.60;92.60;;;;;;5036198;28;20430;-75
2021/03/12 09:33:59;;;;;;;81.00;55.90;;;8.60;92.70;;;;;;5036715;28;20473;-76
2021/03/12 09:36:39;;;;;;;43.45;29.52;;;8.60;92.50;;;;;;5035631;28;20033;-66
2021/03/12 09:39:13;;;;;;;40.15;23.58;;;8.60;92.50;;;;;;5035446;28;20032;-66
2021/03/12 09:41:42;;;;;;;37.22;24.98;;;8.60;93.10;;;;;;5037003;28;20022;-76
2021/03/12 09:44:15;;;;;;;46.40;33.67;;;8.60;93.00;;;;;;5037433;28;20049;-66
2021/03/12 09:46:53;;;;;;;37.83;26.13;;;8.60;92.80;;;;;;5036765;28;20025;-66
2021/03/12 09:49:29;;;;;;;40.92;27.95;;;8.70;93.20;;;;;;5024175;28;20028;-66
2021/03/12 09:51:58;;;;;;;33.05;23.90;;;8.70;93.30;;;;;;5024772;28;20068;-74
2021/03/12 09:54:26;;;;;;;35.47;25.20;;;8.70;93.10;;;;;;5023105;28;20030;-66
2021/03/12 09:56:54;;;;;;;37.20;25.90;;;8.70;93.10;;;;;;5021963;28;20479;-66
2021/03/12 09:59:24;;;;;;;34.58;23.15;;;8.80;93.30;;;;;;5022888;28;20068;-66
2021/03/12 10:01:50;;;;;;;31.50;23.40;;;8.80;92.80;;;;;;5024351;28;20025;-66
2021/03/12 10:04:26;;;;;;;29.58;21.42;;;8.80;92.80;;;;;;5022357;28;20022;-66
2021/03/12 10:07:01;;;;;;;28.88;19.50;;;8.90;92.20;;;;;;5023956;28;20079;-65
2021/03/12 10:09:29;;;;;;;31.42;20.25;;;9.00;92.30;;;;;;5021830;28;20076;-65
2021/03/12 10:11:55;;;;;;;29.58;20.65;;;8.90;92.50;;;;;;5028063;28;20028;-66
2021/03/12 10:14:30;;;;;;;27.95;20.42;;;9.00;92.00;;;;;;5031148;28;20053;-69
2021/03/12 10:17:07;;;;;;;27.42;18.00;;;9.00;91.50;;;;;;5015509;28;20037;-75
2021/03/12 10:19:47;;;;;;;31.75;21.52;;;9.10;91.30;;;;;;5016305;28;20067;-66
2021/03/12 10:22:20;;;;;;;41.53;30.40;;;9.20;92.10;;;;;;5022145;28;20033;-67
2021/03/12 10:24:56;;;;;;;39.15;27.17;;;9.20;90.90;;;;;;5035147;28;20419;-76
2021/03/12 10:27:24;;;;;;;40.22;27.88;;;9.30;90.60;;;;;;5035462;28;20034;-67
2021/03/12 10:29:51;;;;;;;59.38;38.95;;;9.40;91.10;;;;;;5041282;28;20422;-73
2021/03/12 10:32:18;;;;;;;34.97;24.00;;;9.50;90.70;;;;;;5039667;28;20025;-66
2021/03/12 10:34:50;;;;;;;46.50;25.02;;;9.50;90.20;;;;;;5039613;28;20076;-68
2021/03/12 10:37:18;;;;;;;45.15;26.52;;;9.50;90.50;;;;;;5038707;28;20100;-68
2021/03/12 10:39:47;;;;;;;44.38;28.00;;;9.60;90.80;;;;;;5039647;28;20079;-66
2021/03/12 10:42:13;;;;;;;48.97;29.65;;;9.60;90.60;;;;;;5039353;28;20028;-64
2021/03/12 10:44:54;;;;;;;55.75;35.97;;;9.60;90.70;;;;;;5040292;28;20060;-66
2021/03/12 10:47:20;;;;;;;48.40;31.35;;;9.60;91.10;;;;;;5039794;28;20025;-66
2021/03/12 10:49:46;;;;;;;55.83;32.63;;;9.60;91.50;;;;;;5038722;28;20024;-71
2021/03/12 10:52:30;;;;;;;62.58;39.75;;;9.70;91.40;;;;;;5040402;28;20025;-68
2021/03/12 10:55:09;;;;;;;44.17;28.92;;;9.70;91.50;;;;;;5042326;28;20056;-66
2021/03/12 10:57:46;;;;;;;39.75;25.35;;;9.70;91.70;;;;;;5039129;28;20028;-73
2021/03/12 11:00:22;;;;;;;42.45;25.98;;;9.80;91.70;;;;;;5039937;28;20457;-65
2021/03/12 11:02:49;;;;;;;42.90;23.80;;;9.70;91.90;;;;;;5040212;28;20025;-65
2021/03/12 11:05:17;;;;;;;186.43;84.00;;;9.80;91.70;;;;;;5039723;28;20029;-73
2021/03/12 11:07:44;;;;;;;414.70;184.35;;;9.80;92.60;;;;;;5041873;28;20535;-65
2021/03/12 11:10:11;;;;;;;271.40;108.80;;;9.90;92.40;;;;;;5040339;28;20160;-66
2021/03/12 11:12:44;;;;;;;224.25;96.68;;;9.90;92.20;;;;;;5038634;28;20476;-67
2021/03/12 11:15:12;;;;;;;241.82;105.97;;;10.00;93.20;;;;;;5039468;28;20037;-71
2021/03/12 11:17:41;;;;;;;300.90;149.20;;;10.10;93.20;;;;;;5037638;28;20053;-72
2021/03/12 11:20:07;;;;;;;96.00;49.20;;;10.10;92.50;;;;;;5037128;28;20485;-66
2021/03/12 11:22:34;;;;;;;73.55;37.08;;;10.20;92.60;;;;;;5038281;28;20021;-66
2021/03/12 11:25:03;;;;;;;145.95;75.90;;;10.30;91.30;;;;;;5038440;28;20022;-66
2021/03/12 11:27:31;;;;;;;77.28;43.47;;;10.30;91.00;;;;;;5038625;28;20017;-75
2021/03/12 11:30:03;;;;;;;88.55;53.38;;;10.30;91.00;;;;;;5042967;28;20113;-66
2021/03/12 11:32:29;;;;;;;135.55;78.30;;;10.30;91.30;;;;;;5042278;28;20033;-75
2021/03/12 11:34:55;;;;;;;167.23;100.47;;;10.30;91.70;;;;;;5042826;28;20033;-70
2021/03/12 11:37:21;;;;;;;170.95;103.93;;;10.30;91.80;;;;;;5037497;28;20025;-74
2021/03/12 11:39:47;;;;;;;152.43;96.63;;;10.30;92.10;;;;;;5038836;28;20010;-66
2021/03/12 11:42:13;;;;;;;100.93;62.63;;;10.30;92.10;;;;;;5038436;28;20036;-71
2021/03/12 11:44:38;;;;;;;82.10;51.50;;;10.30;92.20;;;;;;5038613;28;20025;-66
2021/03/12 11:47:04;;;;;;;101.32;61.38;;;10.20;92.40;;;;;;5037697;28;20055;-66
2021/03/12 11:49:30;;;;;;;110.65;66.65;;;10.20;92.80;;;;;;5035685;28;20029;-66
2021/03/12 11:51:56;;;;;;;89.68;50.17;;;10.20;93.10;;;;;;5037307;28;20476;-66
2021/03/12 11:54:22;;;;;;;118.32;69.78;;;10.20;93.10;;;;;;5037778;28;20082;-74
2021/03/12 11:56:49;;;;;;;128.40;70.85;;;10.20;93.50;;;;;;5038552;28;20083;-74
2021/03/12 11:59:15;;;;;;;130.18;72.55;;;10.20;94.10;;;;;;5040348;28;20021;-66
2021/03/12 12:01:41;;;;;;;117.03;68.63;;;10.30;94.30;;;;;;5043883;28;20021;-76
2021/03/12 12:04:07;;;;;;;104.82;62.13;;;10.30;94.20;;;;;;5046568;28;20010;-74
2021/03/12 12:06:33;;;;;;;77.32;43.97;;;10.40;94.00;;;;;;5038738;28;20029;-66
2021/03/12 12:09:00;;;;;;;69.10;40.78;;;10.30;93.50;;;;;;5045504;28;20021;-74
2021/03/12 12:11:27;;;;;;;66.78;43.13;;;10.30;93.00;;;;;;5043399;28;20036;-75
2021/03/12 12:13:52;;;;;;;60.15;38.20;;;10.30;94.00;;;;;;5042609;28;20029;-66
2021/03/12 12:16:18;;;;;;;60.00;39.20;;;10.30;94.00;;;;;;5040392;28;20024;-66
2021/03/12 12:18:44;;;;;;;55.72;36.40;;;10.30;94.20;;;;;;5042107;28;20053;-67
2021/03/12 12:21:10;;;;;;;66.85;43.53;;;10.20;94.30;;;;;;5042873;28;20022;-65
2021/03/12 12:23:36;;;;;;;60.95;35.72;;;10.20;94.00;;;;;;5039319;28;20002;-66
2021/03/12 12:26:02;;;;;;;51.60;34.88;;;10.20;94.10;;;;;;5037333;28;20056;-69
2021/03/12 12:28:28;;;;;;;53.53;33.75;;;10.30;94.00;;;;;;5041149;28;20013;-75
2021/03/12 12:30:54;;;;;;;68.63;43.10;;;10.30;93.50;;;;;;5045751;28;20104;-75
2021/03/12 12:33:20;;;;;;;62.83;40.30;;;10.40;94.40;;;;;;5044923;28;20021;-66
2021/03/12 12:35:47;;;;;;;67.35;45.10;;;10.40;93.90;;;;;;5041603;28;20033;-74
2021/03/12 12:38:13;;;;;;;63.75;39.20;;;10.50;94.30;;;;;;5045601;28;20490;-74
2021/03/12 12:40:39;;;;;;;68.18;42.05;;;10.50;93.70;;;;;;5046490;28;20029;-75
2021/03/12 12:43:05;;;;;;;53.40;33.28;;;10.60;93.80;;;;;;5044335;28;20098;-70
2021/03/12 12:45:31;;;;;;;68.07;45.33;;;10.70;93.60;;;;;;5042025;28;20044;-66